sensor_id;sensor_type;location;lat;lon;timestamp;temperature;humidity
9941;DHT22;5009;50.656;7.188;2023-04-24T04:01:21;9.80;99.00
9941;DHT22;5009;50.656;7.188;2023-04-24T04:03:46;9.80;99.10
9941;DHT22;5009;50.656;7.188;2023-04-24T04:06:12;9.80;99.20
9941;DHT22;5009;50.656;7.188;2023-04-24T04:08:38;9.70;99.00
9941;DHT22;5009;50.656;7.188;2023-04-24T04:11:04;9.70;99.30
9941;DHT22;5009;50.656;7.188;2023-04-24T04:13:29;9.60;99.80
9941;DHT22;5009;50.656;7.188;2023-04-24T04:15:55;9.60;99.50
9941;DHT22;5009;50.656;7.188;2023-04-24T04:18:20;9.60;99.90
9941;DHT22;5009;50.656;7.188;2023-04-24T04:20:46;9.60;99.90
9941;DHT22;5009;50.656;7.188;2023-04-24T04:23:11;9.70;99.90
9941;DHT22;5009;50.656;7.188;2023-04-24T04:25:37;9.70;99.90
9941;DHT22;5009;50.656;7.188;2023-04-24T04:28:03;9.60;99.90
9941;DHT22;5009;50.656;7.188;2023-04-24T04:30:28;9.60;99.90
9941;DHT22;5009;50.656;7.188;2023-04-24T04:32:57;9.60;99.90
9941;DHT22;5009;50.656;7.188;2023-04-24T04:35:23;9.60;99.90
9941;DHT22;5009;50.656;7.188;2023-04-24T04:37:49;9.60;99.90
9941;DHT22;5009;50.656;7.188;2023-04-24T04:40:14;9.60;99.90
9941;DHT22;5009;50.656;7.188;2023-04-24T04:42:40;9.60;99.90
9941;DHT22;5009;50.656;7.188;2023-04-24T04:45:08;9.60;99.90
9941;DHT22;5009;50.656;7.188;2023-04-24T04:47:34;9.70;99.90
9941;DHT22;5009;50.656;7.188;2023-04-24T04:50:00;9.70;99.90
9941;DHT22;5009;50.656;7.188;2023-04-24T04:52:26;9.70;99.90
9941;DHT22;5009;50.656;7.188;2023-04-24T04:54:52;9.80;99.90
9941;DHT22;5009;50.656;7.188;2023-04-24T04:57:17;9.80;99.90
9941;DHT22;5009;50.656;7.188;2023-04-24T04:59:43;9.80;99.90
9941;DHT22;5009;50.656;7.188;2023-04-24T05:02:09;9.80;99.90
9941;DHT22;5009;50.656;7.188;2023-04-24T05:04:34;9.80;99.90
9941;DHT22;5009;50.656;7.188;2023-04-24T05:07:00;9.80;99.90
9941;DHT22;5009;50.656;7.188;2023-04-24T05:09:25;9.90;99.90
9941;DHT22;5009;50.656;7.188;2023-04-24T05:11:53;10.00;99.90
9941;DHT22;5009;50.656;7.188;2023-04-24T05:14:18;10.10;99.90
9941;DHT22;5009;50.656;7.188;2023-04-24T05:16:44;10.20;99.70
9941;DHT22;5009;50.656;7.188;2023-04-24T05:19:10;10.20;98.70
9941;DHT22;5009;50.656;7.188;2023-04-24T05:21:37;10.20;98.30
9941;DHT22;5009;50.656;7.188;2023-04-24T05:24:03;10.30;98.30
9941;DHT22;5009;50.656;7.188;2023-04-24T05:26:28;10.40;98.10
9941;DHT22;5009;50.656;7.188;2023-04-24T05:28:54;10.50;98.00
9941;DHT22;5009;50.656;7.188;2023-04-24T05:31:20;10.60;97.60
9941;DHT22;5009;50.656;7.188;2023-04-24T05:33:45;10.60;97.10
9941;DHT22;5009;50.656;7.188;2023-04-24T05:36:11;10.70;96.50
9941;DHT22;5009;50.656;7.188;2023-04-24T05:38:36;10.80;96.40
9941;DHT22;5009;50.656;7.188;2023-04-24T05:41:02;10.90;96.20
9941;DHT22;5009;50.656;7.188;2023-04-24T05:43:27;10.80;96.00
9941;DHT22;5009;50.656;7.188;2023-04-24T05:45:53;10.80;96.20
9941;DHT22;5009;50.656;7.188;2023-04-24T05:48:19;10.80;96.30
9941;DHT22;5009;50.656;7.188;2023-04-24T05:50:44;10.70;96.60
9941;DHT22;5009;50.656;7.188;2023-04-24T05:53:10;10.70;96.60
9941;DHT22;5009;50.656;7.188;2023-04-24T05:55:36;10.70;96.40
9941;DHT22;5009;50.656;7.188;2023-04-24T05:58:02;10.60;96.80
9941;DHT22;5009;50.656;7.188;2023-04-24T06:00:27;10.60;97.10
9941;DHT22;5009;50.656;7.188;2023-04-24T06:02:54;10.70;96.80
9941;DHT22;5009;50.656;7.188;2023-04-24T06:05:19;10.80;96.90
9941;DHT22;5009;50.656;7.188;2023-04-24T06:07:45;10.80;96.80
9941;DHT22;5009;50.656;7.188;2023-04-24T06:10:11;10.90;96.90
9941;DHT22;5009;50.656;7.188;2023-04-24T06:12:36;10.90;96.80
9941;DHT22;5009;50.656;7.188;2023-04-24T06:15:03;11.00;96.80
9941;DHT22;5009;50.656;7.188;2023-04-24T06:17:29;10.90;96.70
9941;DHT22;5009;50.656;7.188;2023-04-24T06:19:54;10.80;96.70
9941;DHT22;5009;50.656;7.188;2023-04-24T06:22:20;10.80;97.10
9941;DHT22;5009;50.656;7.188;2023-04-24T06:24:45;10.70;97.00
9941;DHT22;5009;50.656;7.188;2023-04-24T06:27:12;10.80;97.30
9941;DHT22;5009;50.656;7.188;2023-04-24T06:29:38;10.80;97.40
9941;DHT22;5009;50.656;7.188;2023-04-24T06:32:03;10.90;97.50
9941;DHT22;5009;50.656;7.188;2023-04-24T06:34:29;10.90;97.10
9941;DHT22;5009;50.656;7.188;2023-04-24T06:36:56;11.00;97.30
9941;DHT22;5009;50.656;7.188;2023-04-24T06:39:21;11.00;97.30
9941;DHT22;5009;50.656;7.188;2023-04-24T06:41:47;11.00;97.40
9941;DHT22;5009;50.656;7.188;2023-04-24T06:44:12;11.10;97.80
9941;DHT22;5009;50.656;7.188;2023-04-24T06:46:40;11.10;97.70
9941;DHT22;5009;50.656;7.188;2023-04-24T06:49:06;11.20;97.50
9941;DHT22;5009;50.656;7.188;2023-04-24T06:51:32;11.20;97.50
9941;DHT22;5009;50.656;7.188;2023-04-24T06:53:58;11.20;98.00
9941;DHT22;5009;50.656;7.188;2023-04-24T06:56:24;11.30;97.40
9941;DHT22;5009;50.656;7.188;2023-04-24T06:58:50;11.30;97.40
9941;DHT22;5009;50.656;7.188;2023-04-24T07:01:16;11.30;97.60
9941;DHT22;5009;50.656;7.188;2023-04-24T07:03:41;11.30;97.60
9941;DHT22;5009;50.656;7.188;2023-04-24T07:06:07;11.30;97.80
9941;DHT22;5009;50.656;7.188;2023-04-24T07:08:33;11.40;98.30
9941;DHT22;5009;50.656;7.188;2023-04-24T07:10:59;11.40;99.60
9941;DHT22;5009;50.656;7.188;2023-04-24T07:13:25;11.40;99.90
9941;DHT22;5009;50.656;7.188;2023-04-24T07:15:51;11.40;99.90
9941;DHT22;5009;50.656;7.188;2023-04-24T07:18:20;11.40;99.90
9941;DHT22;5009;50.656;7.188;2023-04-24T07:20:45;11.40;99.90
9941;DHT22;5009;50.656;7.188;2023-04-24T07:23:11;11.50;99.90
9941;DHT22;5009;50.656;7.188;2023-04-24T07:25:36;11.40;99.90
9941;DHT22;5009;50.656;7.188;2023-04-24T07:28:02;11.50;99.90
9941;DHT22;5009;50.656;7.188;2023-04-24T07:30:27;11.50;99.90
9941;DHT22;5009;50.656;7.188;2023-04-24T07:32:58;11.50;99.90
9941;DHT22;5009;50.656;7.188;2023-04-24T07:35:24;11.50;99.90
9941;DHT22;5009;50.656;7.188;2023-04-24T07:37:54;11.50;99.90
9941;DHT22;5009;50.656;7.188;2023-04-24T07:40:20;11.50;99.90
9941;DHT22;5009;50.656;7.188;2023-04-24T07:42:45;11.40;99.90
9941;DHT22;5009;50.656;7.188;2023-04-24T07:45:14;11.50;99.90
9941;DHT22;5009;50.656;7.188;2023-04-24T07:47:40;11.50;99.90
9941;DHT22;5009;50.656;7.188;2023-04-24T07:50:09;11.50;99.90
9941;DHT22;5009;50.656;7.188;2023-04-24T07:52:35;11.50;99.90
9941;DHT22;5009;50.656;7.188;2023-04-24T07:55:01;11.50;99.90
9941;DHT22;5009;50.656;7.188;2023-04-24T07:57:27;11.40;99.90
9941;DHT22;5009;50.656;7.188;2023-04-24T07:59:53;11.40;99.90
9941;DHT22;5009;50.656;7.188;2023-04-24T08:02:19;11.50;99.90
9941;DHT22;5009;50.656;7.188;2023-04-24T08:04:44;11.40;99.90
9941;DHT22;5009;50.656;7.188;2023-04-24T08:07:10;11.40;99.90
9941;DHT22;5009;50.656;7.188;2023-04-24T08:09:38;11.50;99.90
9941;DHT22;5009;50.656;7.188;2023-04-24T08:12:03;11.60;99.90
9941;DHT22;5009;50.656;7.188;2023-04-24T08:14:29;11.60;99.90
9941;DHT22;5009;50.656;7.188;2023-04-24T08:16:55;11.60;99.90
9941;DHT22;5009;50.656;7.188;2023-04-24T08:19:25;11.50;99.90
9941;DHT22;5009;50.656;7.188;2023-04-24T08:21:51;11.60;99.90
9941;DHT22;5009;50.656;7.188;2023-04-24T08:24:16;11.60;99.90
9941;DHT22;5009;50.656;7.188;2023-04-24T08:26:42;11.60;99.90
9941;DHT22;5009;50.656;7.188;2023-04-24T08:29:08;11.50;99.90
9941;DHT22;5009;50.656;7.188;2023-04-24T08:31:33;11.50;99.90
9941;DHT22;5009;50.656;7.188;2023-04-24T08:33:59;11.50;99.90
9941;DHT22;5009;50.656;7.188;2023-04-24T08:36:25;11.40;99.90
9941;DHT22;5009;50.656;7.188;2023-04-24T08:38:51;11.40;99.90
9941;DHT22;5009;50.656;7.188;2023-04-24T08:41:18;11.50;99.90
9941;DHT22;5009;50.656;7.188;2023-04-24T08:43:46;11.50;99.90
9941;DHT22;5009;50.656;7.188;2023-04-24T08:46:12;11.40;99.90
9941;DHT22;5009;50.656;7.188;2023-04-24T08:48:39;11.40;99.90
9941;DHT22;5009;50.656;7.188;2023-04-24T08:51:07;11.30;99.90
9941;DHT22;5009;50.656;7.188;2023-04-24T08:53:33;11.10;99.90
9941;DHT22;5009;50.656;7.188;2023-04-24T08:56:00;11.00;99.90
9941;DHT22;5009;50.656;7.188;2023-04-24T08:58:27;11.00;99.90
9941;DHT22;5009;50.656;7.188;2023-04-24T09:00:57;11.00;99.90
9941;DHT22;5009;50.656;7.188;2023-04-24T09:03:23;11.00;99.90
9941;DHT22;5009;50.656;7.188;2023-04-24T09:05:49;11.10;99.90
9941;DHT22;5009;50.656;7.188;2023-04-24T09:08:17;11.20;99.90
9941;DHT22;5009;50.656;7.188;2023-04-24T09:10:43;11.20;99.90
9941;DHT22;5009;50.656;7.188;2023-04-24T09:13:09;11.20;99.90
9941;DHT22;5009;50.656;7.188;2023-04-24T09:15:36;11.10;99.90
9941;DHT22;5009;50.656;7.188;2023-04-24T09:18:02;11.20;99.90
9941;DHT22;5009;50.656;7.188;2023-04-24T09:20:28;11.20;99.90
9941;DHT22;5009;50.656;7.188;2023-04-24T09:22:54;11.10;99.90
9941;DHT22;5009;50.656;7.188;2023-04-24T09:25:30;11.30;99.90
9941;DHT22;5009;50.656;7.188;2023-04-24T09:28:03;11.30;99.90
9941;DHT22;5009;50.656;7.188;2023-04-24T09:30:29;11.40;99.90
9941;DHT22;5009;50.656;7.188;2023-04-24T09:33:14;11.40;99.90
9941;DHT22;5009;50.656;7.188;2023-04-24T09:35:42;11.50;99.90
9941;DHT22;5009;50.656;7.188;2023-04-24T09:38:08;11.50;99.90
9941;DHT22;5009;50.656;7.188;2023-04-24T09:40:34;11.50;99.90
9941;DHT22;5009;50.656;7.188;2023-04-24T09:43:00;11.50;99.90
9941;DHT22;5009;50.656;7.188;2023-04-24T09:45:28;11.50;99.90
9941;DHT22;5009;50.656;7.188;2023-04-24T09:48:00;11.50;99.90
9941;DHT22;5009;50.656;7.188;2023-04-24T09:50:25;11.50;99.90
9941;DHT22;5009;50.656;7.188;2023-04-24T09:53:05;11.50;99.90
9941;DHT22;5009;50.656;7.188;2023-04-24T09:55:39;11.70;99.90
9941;DHT22;5009;50.656;7.188;2023-04-24T09:58:04;11.50;99.90
9941;DHT22;5009;50.656;7.188;2023-04-24T10:00:32;11.50;99.90
9941;DHT22;5009;50.656;7.188;2023-04-24T10:02:59;11.60;99.90
9941;DHT22;5009;50.656;7.188;2023-04-24T10:05:29;11.60;99.90
9941;DHT22;5009;50.656;7.188;2023-04-24T10:10:26;11.70;99.90
9941;DHT22;5009;50.656;7.188;2023-04-24T10:12:52;11.70;99.90
9941;DHT22;5009;50.656;7.188;2023-04-24T10:15:18;11.60;99.90
9941;DHT22;5009;50.656;7.188;2023-04-24T10:17:50;11.50;99.90
9941;DHT22;5009;50.656;7.188;2023-04-24T10:20:20;11.50;99.90
9941;DHT22;5009;50.656;7.188;2023-04-24T10:22:48;11.30;99.90
9941;DHT22;5009;50.656;7.188;2023-04-24T10:25:16;11.30;99.90
9941;DHT22;5009;50.656;7.188;2023-04-24T10:27:43;11.30;99.90
9941;DHT22;5009;50.656;7.188;2023-04-24T10:30:11;11.30;99.90
9941;DHT22;5009;50.656;7.188;2023-04-24T10:32:37;11.20;99.90
9941;DHT22;5009;50.656;7.188;2023-04-24T10:35:03;11.10;99.90
9941;DHT22;5009;50.656;7.188;2023-04-24T10:37:36;11.10;99.90
9941;DHT22;5009;50.656;7.188;2023-04-24T10:40:02;11.10;99.90
9941;DHT22;5009;50.656;7.188;2023-04-24T10:42:28;11.10;99.90
9941;DHT22;5009;50.656;7.188;2023-04-24T10:44:54;11.00;99.90
9941;DHT22;5009;50.656;7.188;2023-04-24T10:47:20;11.00;99.90
9941;DHT22;5009;50.656;7.188;2023-04-24T10:49:46;11.00;99.90
9941;DHT22;5009;50.656;7.188;2023-04-24T10:52:15;11.00;99.90
9941;DHT22;5009;50.656;7.188;2023-04-24T10:54:44;11.00;99.90
9941;DHT22;5009;50.656;7.188;2023-04-24T10:57:29;11.00;99.90
9941;DHT22;5009;50.656;7.188;2023-04-24T11:00:18;11.00;99.90
9941;DHT22;5009;50.656;7.188;2023-04-24T11:02:46;11.00;99.90
9941;DHT22;5009;50.656;7.188;2023-04-24T11:05:18;11.00;99.90
9941;DHT22;5009;50.656;7.188;2023-04-24T11:08:10;11.10;99.90
9941;DHT22;5009;50.656;7.188;2023-04-24T11:10:43;11.20;99.90
9941;DHT22;5009;50.656;7.188;2023-04-24T11:13:09;11.30;99.90
9941;DHT22;5009;50.656;7.188;2023-04-24T11:15:34;11.40;99.90
9941;DHT22;5009;50.656;7.188;2023-04-24T11:18:00;11.60;99.90
9941;DHT22;5009;50.656;7.188;2023-04-24T11:20:25;12.00;99.90
9941;DHT22;5009;50.656;7.188;2023-04-24T11:22:53;12.40;99.90
9941;DHT22;5009;50.656;7.188;2023-04-24T11:25:23;12.80;99.90
9941;DHT22;5009;50.656;7.188;2023-04-24T11:27:50;13.20;99.90
9941;DHT22;5009;50.656;7.188;2023-04-24T11:30:20;13.40;99.90
9941;DHT22;5009;50.656;7.188;2023-04-24T11:32:51;13.60;99.90
9941;DHT22;5009;50.656;7.188;2023-04-24T11:37:48;13.70;99.90
9941;DHT22;5009;50.656;7.188;2023-04-24T11:40:18;13.70;99.90
9941;DHT22;5009;50.656;7.188;2023-04-24T11:42:46;13.60;99.90
9941;DHT22;5009;50.656;7.188;2023-04-24T11:47:40;13.50;99.90
9941;DHT22;5009;50.656;7.188;2023-04-24T11:50:08;13.40;99.90
9941;DHT22;5009;50.656;7.188;2023-04-24T11:52:42;13.10;99.90
9941;DHT22;5009;50.656;7.188;2023-04-24T11:57:42;12.90;99.90
9941;DHT22;5009;50.656;7.188;2023-04-24T12:00:16;12.90;99.90
9941;DHT22;5009;50.656;7.188;2023-04-24T12:02:42;13.00;99.90
9941;DHT22;5009;50.656;7.188;2023-04-24T12:05:08;12.90;99.90
9941;DHT22;5009;50.656;7.188;2023-04-24T12:07:41;12.90;99.90
9941;DHT22;5009;50.656;7.188;2023-04-24T12:10:08;12.90;99.90
9941;DHT22;5009;50.656;7.188;2023-04-24T12:12:35;12.80;99.90
9941;DHT22;5009;50.656;7.188;2023-04-24T12:15:06;12.70;99.90
9941;DHT22;5009;50.656;7.188;2023-04-24T12:17:33;12.40;99.90
9941;DHT22;5009;50.656;7.188;2023-04-24T12:20:04;12.40;99.90
9941;DHT22;5009;50.656;7.188;2023-04-24T12:25:12;12.50;99.90
9941;DHT22;5009;50.656;7.188;2023-04-24T12:27:38;12.60;99.90
9941;DHT22;5009;50.656;7.188;2023-04-24T12:30:05;12.70;99.90
9941;DHT22;5009;50.656;7.188;2023-04-24T12:32:31;12.80;99.90
9941;DHT22;5009;50.656;7.188;2023-04-24T12:34:57;12.80;99.90
9941;DHT22;5009;50.656;7.188;2023-04-24T12:37:24;12.60;99.90
9941;DHT22;5009;50.656;7.188;2023-04-24T12:40:08;12.50;99.90
9941;DHT22;5009;50.656;7.188;2023-04-24T12:42:35;12.50;99.90
9941;DHT22;5009;50.656;7.188;2023-04-24T12:45:09;12.70;99.90
9941;DHT22;5009;50.656;7.188;2023-04-24T12:47:37;12.90;99.90
9941;DHT22;5009;50.656;7.188;2023-04-24T12:50:03;13.10;99.90
9941;DHT22;5009;50.656;7.188;2023-04-24T12:52:30;13.30;99.90
9941;DHT22;5009;50.656;7.188;2023-04-24T12:54:57;13.40;99.90
9941;DHT22;5009;50.656;7.188;2023-04-24T12:57:24;13.60;99.90
9941;DHT22;5009;50.656;7.188;2023-04-24T12:59:52;13.80;99.90
9941;DHT22;5009;50.656;7.188;2023-04-24T13:02:17;14.00;99.90
9941;DHT22;5009;50.656;7.188;2023-04-24T13:04:46;14.00;99.90
9941;DHT22;5009;50.656;7.188;2023-04-24T13:07:13;14.10;99.90
9941;DHT22;5009;50.656;7.188;2023-04-24T13:09:40;14.20;99.90
9941;DHT22;5009;50.656;7.188;2023-04-24T13:12:05;14.00;99.60
9941;DHT22;5009;50.656;7.188;2023-04-24T13:14:32;13.80;98.60
9941;DHT22;5009;50.656;7.188;2023-04-24T13:16:57;13.70;98.40
9941;DHT22;5009;50.656;7.188;2023-04-24T13:19:26;13.50;98.60
9941;DHT22;5009;50.656;7.188;2023-04-24T13:21:54;13.30;99.50
9941;DHT22;5009;50.656;7.188;2023-04-24T13:24:20;13.20;99.90
9941;DHT22;5009;50.656;7.188;2023-04-24T13:26:46;13.00;99.80
9941;DHT22;5009;50.656;7.188;2023-04-24T13:29:12;12.90;99.90
9941;DHT22;5009;50.656;7.188;2023-04-24T13:31:37;12.70;99.90
9941;DHT22;5009;50.656;7.188;2023-04-24T13:34:03;12.70;99.90
9941;DHT22;5009;50.656;7.188;2023-04-24T13:36:30;12.90;99.90
9941;DHT22;5009;50.656;7.188;2023-04-24T13:38:56;13.10;99.90
9941;DHT22;5009;50.656;7.188;2023-04-24T13:41:22;13.20;99.90
9941;DHT22;5009;50.656;7.188;2023-04-24T13:43:47;13.40;99.90
9941;DHT22;5009;50.656;7.188;2023-04-24T13:46:13;13.50;99.90
9941;DHT22;5009;50.656;7.188;2023-04-24T13:48:38;13.60;98.90
9941;DHT22;5009;50.656;7.188;2023-04-24T13:51:04;13.80;99.90
9941;DHT22;5009;50.656;7.188;2023-04-24T13:53:30;13.90;99.20
9941;DHT22;5009;50.656;7.188;2023-04-24T13:55:56;14.10;99.70
9941;DHT22;5009;50.656;7.188;2023-04-24T13:58:21;14.10;97.80
9941;DHT22;5009;50.656;7.188;2023-04-24T14:00:47;14.20;96.90
9941;DHT22;5009;50.656;7.188;2023-04-24T14:03:12;14.20;96.30
9941;DHT22;5009;50.656;7.188;2023-04-24T14:05:38;14.20;95.30
9941;DHT22;5009;50.656;7.188;2023-04-24T14:08:04;14.10;94.60
9941;DHT22;5009;50.656;7.188;2023-04-24T14:10:31;14.00;94.50
9941;DHT22;5009;50.656;7.188;2023-04-24T14:12:56;13.90;94.00
9941;DHT22;5009;50.656;7.188;2023-04-24T14:15:22;13.90;93.70
9941;DHT22;5009;50.656;7.188;2023-04-24T14:17:48;13.90;93.40
9941;DHT22;5009;50.656;7.188;2023-04-24T14:20:15;13.90;92.70
9941;DHT22;5009;50.656;7.188;2023-04-24T14:22:40;13.80;93.00
9941;DHT22;5009;50.656;7.188;2023-04-24T14:25:06;13.80;92.90
9941;DHT22;5009;50.656;7.188;2023-04-24T14:27:32;13.80;93.50
9941;DHT22;5009;50.656;7.188;2023-04-24T14:29:59;13.90;93.40
9941;DHT22;5009;50.656;7.188;2023-04-24T14:32:25;14.00;93.30
9941;DHT22;5009;50.656;7.188;2023-04-24T14:34:51;14.10;92.80
9941;DHT22;5009;50.656;7.188;2023-04-24T14:37:16;14.30;92.70
9941;DHT22;5009;50.656;7.188;2023-04-24T14:39:42;14.30;92.20
9941;DHT22;5009;50.656;7.188;2023-04-24T14:42:07;14.30;92.30
9941;DHT22;5009;50.656;7.188;2023-04-24T14:44:33;14.40;92.20
9941;DHT22;5009;50.656;7.188;2023-04-24T14:46:59;14.30;92.10
9941;DHT22;5009;50.656;7.188;2023-04-24T14:49:25;14.20;92.10
9941;DHT22;5009;50.656;7.188;2023-04-24T14:51:51;14.10;92.20
9941;DHT22;5009;50.656;7.188;2023-04-24T14:54:16;14.00;92.90
9941;DHT22;5009;50.656;7.188;2023-04-24T14:56:42;14.10;93.50
9941;DHT22;5009;50.656;7.188;2023-04-24T14:59:09;14.00;93.30
9941;DHT22;5009;50.656;7.188;2023-04-24T15:01:35;14.00;93.80
9941;DHT22;5009;50.656;7.188;2023-04-24T15:04:01;13.90;93.50
9941;DHT22;5009;50.656;7.188;2023-04-24T15:06:26;13.90;93.60
9941;DHT22;5009;50.656;7.188;2023-04-24T15:08:52;13.90;93.40
9941;DHT22;5009;50.656;7.188;2023-04-24T15:11:18;14.10;93.60
9941;DHT22;5009;50.656;7.188;2023-04-24T15:13:43;14.20;93.10
9941;DHT22;5009;50.656;7.188;2023-04-24T15:16:12;14.30;93.00
9941;DHT22;5009;50.656;7.188;2023-04-24T15:18:37;14.30;92.40
9941;DHT22;5009;50.656;7.188;2023-04-24T15:21:03;14.20;92.10
9941;DHT22;5009;50.656;7.188;2023-04-24T15:23:28;14.20;92.20
9941;DHT22;5009;50.656;7.188;2023-04-24T15:25:54;14.00;91.70
9941;DHT22;5009;50.656;7.188;2023-04-24T15:28:20;13.90;91.60
9941;DHT22;5009;50.656;7.188;2023-04-24T15:30:47;13.90;91.90
9941;DHT22;5009;50.656;7.188;2023-04-24T15:33:12;13.90;92.10
9941;DHT22;5009;50.656;7.188;2023-04-24T15:35:38;14.00;92.30
9941;DHT22;5009;50.656;7.188;2023-04-24T15:38:04;14.10;92.10
9941;DHT22;5009;50.656;7.188;2023-04-24T15:40:29;14.10;92.10
9941;DHT22;5009;50.656;7.188;2023-04-24T15:42:55;14.20;92.00
9941;DHT22;5009;50.656;7.188;2023-04-24T15:45:21;14.30;91.40
9941;DHT22;5009;50.656;7.188;2023-04-24T15:47:47;14.30;91.30
9941;DHT22;5009;50.656;7.188;2023-04-24T15:50:13;14.30;91.20
9941;DHT22;5009;50.656;7.188;2023-04-24T15:52:40;14.10;90.50
9941;DHT22;5009;50.656;7.188;2023-04-24T15:55:06;14.00;90.20
9941;DHT22;5009;50.656;7.188;2023-04-24T15:57:32;14.00;90.20
9941;DHT22;5009;50.656;7.188;2023-04-24T15:59:58;14.00;89.80
9941;DHT22;5009;50.656;7.188;2023-04-24T16:02:23;14.10;89.70
9941;DHT22;5009;50.656;7.188;2023-04-24T16:04:49;14.10;89.30
9941;DHT22;5009;50.656;7.188;2023-04-24T16:07:15;14.10;88.90
9941;DHT22;5009;50.656;7.188;2023-04-24T16:09:43;14.10;89.00
9941;DHT22;5009;50.656;7.188;2023-04-24T16:12:08;14.10;88.90
9941;DHT22;5009;50.656;7.188;2023-04-24T16:14:35;14.10;88.80
9941;DHT22;5009;50.656;7.188;2023-04-24T16:17:01;14.00;88.80
9941;DHT22;5009;50.656;7.188;2023-04-24T16:19:27;14.00;88.70
9941;DHT22;5009;50.656;7.188;2023-04-24T16:21:53;14.10;89.20
9941;DHT22;5009;50.656;7.188;2023-04-24T16:24:21;14.10;89.70
9941;DHT22;5009;50.656;7.188;2023-04-24T16:26:47;14.10;90.10
9941;DHT22;5009;50.656;7.188;2023-04-24T16:29:13;14.20;90.20
9941;DHT22;5009;50.656;7.188;2023-04-24T16:31:40;14.20;89.70
9941;DHT22;5009;50.656;7.188;2023-04-24T16:34:06;14.10;89.50
9941;DHT22;5009;50.656;7.188;2023-04-24T16:36:31;14.00;89.70
9941;DHT22;5009;50.656;7.188;2023-04-24T16:38:57;13.90;89.20
9941;DHT22;5009;50.656;7.188;2023-04-24T16:41:26;13.80;89.70
9941;DHT22;5009;50.656;7.188;2023-04-24T16:43:51;13.80;90.00
9941;DHT22;5009;50.656;7.188;2023-04-24T16:46:18;13.70;90.10
9941;DHT22;5009;50.656;7.188;2023-04-24T16:48:43;13.60;90.00
9941;DHT22;5009;50.656;7.188;2023-04-24T16:51:09;13.60;90.00
9941;DHT22;5009;50.656;7.188;2023-04-24T16:53:35;13.60;90.00
9941;DHT22;5009;50.656;7.188;2023-04-24T16:56:00;13.60;90.30
9941;DHT22;5009;50.656;7.188;2023-04-24T16:58:26;13.50;90.40
9941;DHT22;5009;50.656;7.188;2023-04-24T17:00:51;13.60;90.50
9941;DHT22;5009;50.656;7.188;2023-04-24T17:03:17;13.60;90.40
9941;DHT22;5009;50.656;7.188;2023-04-24T17:05:43;13.60;90.30
9941;DHT22;5009;50.656;7.188;2023-04-24T17:08:08;13.60;90.20
9941;DHT22;5009;50.656;7.188;2023-04-24T17:10:34;13.50;90.00
9941;DHT22;5009;50.656;7.188;2023-04-24T17:12:59;13.50;90.00
9941;DHT22;5009;50.656;7.188;2023-04-24T17:15:25;13.50;90.20
9941;DHT22;5009;50.656;7.188;2023-04-24T17:17:51;13.50;90.00
9941;DHT22;5009;50.656;7.188;2023-04-24T17:20:16;13.50;90.10
9941;DHT22;5009;50.656;7.188;2023-04-24T17:22:42;13.50;90.20
9941;DHT22;5009;50.656;7.188;2023-04-24T17:25:08;13.50;90.20
9941;DHT22;5009;50.656;7.188;2023-04-24T17:27:33;13.40;90.10
9941;DHT22;5009;50.656;7.188;2023-04-24T17:29:59;13.40;90.40
9941;DHT22;5009;50.656;7.188;2023-04-24T17:32:25;13.40;90.10
9941;DHT22;5009;50.656;7.188;2023-04-24T17:34:50;13.30;90.00
9941;DHT22;5009;50.656;7.188;2023-04-24T17:37:16;13.30;90.10
9941;DHT22;5009;50.656;7.188;2023-04-24T17:39:44;13.30;90.10
9941;DHT22;5009;50.656;7.188;2023-04-24T17:42:10;13.30;90.30
9941;DHT22;5009;50.656;7.188;2023-04-24T17:44:35;13.20;90.20
9941;DHT22;5009;50.656;7.188;2023-04-24T17:47:01;13.10;90.20
9941;DHT22;5009;50.656;7.188;2023-04-24T17:49:29;13.10;90.30
9941;DHT22;5009;50.656;7.188;2023-04-24T17:51:54;13.10;90.40
9941;DHT22;5009;50.656;7.188;2023-04-24T17:54:20;13.00;90.70
9941;DHT22;5009;50.656;7.188;2023-04-24T17:56:46;13.00;90.80
9941;DHT22;5009;50.656;7.188;2023-04-24T17:59:12;13.00;91.00
9941;DHT22;5009;50.656;7.188;2023-04-24T18:01:37;12.90;90.90
9941;DHT22;5009;50.656;7.188;2023-04-24T18:04:03;12.90;90.90
9941;DHT22;5009;50.656;7.188;2023-04-24T18:06:28;12.90;91.00
9941;DHT22;5009;50.656;7.188;2023-04-24T18:08:54;12.90;91.30
9941;DHT22;5009;50.656;7.188;2023-04-24T18:11:20;12.90;91.40
9941;DHT22;5009;50.656;7.188;2023-04-24T18:13:46;12.90;91.50
9941;DHT22;5009;50.656;7.188;2023-04-24T18:16:11;12.90;91.60
9941;DHT22;5009;50.656;7.188;2023-04-24T18:18:37;12.80;91.80
9941;DHT22;5009;50.656;7.188;2023-04-24T18:21:03;12.80;92.20
9941;DHT22;5009;50.656;7.188;2023-04-24T18:23:28;12.80;92.50
9941;DHT22;5009;50.656;7.188;2023-04-24T18:25:54;12.70;92.40
9941;DHT22;5009;50.656;7.188;2023-04-24T18:28:19;12.70;92.50
9941;DHT22;5009;50.656;7.188;2023-04-24T18:30:46;12.70;92.70
9941;DHT22;5009;50.656;7.188;2023-04-24T18:33:11;12.70;93.10
9941;DHT22;5009;50.656;7.188;2023-04-24T18:35:37;12.70;93.70
9941;DHT22;5009;50.656;7.188;2023-04-24T18:38:03;12.70;94.40
9941;DHT22;5009;50.656;7.188;2023-04-24T18:40:28;12.60;94.70
9941;DHT22;5009;50.656;7.188;2023-04-24T18:42:55;12.60;95.90
9941;DHT22;5009;50.656;7.188;2023-04-24T18:45:21;12.50;96.00
9941;DHT22;5009;50.656;7.188;2023-04-24T18:47:46;12.50;96.10
9941;DHT22;5009;50.656;7.188;2023-04-24T18:50:12;12.50;96.40
9941;DHT22;5009;50.656;7.188;2023-04-24T18:52:39;12.40;96.70
9941;DHT22;5009;50.656;7.188;2023-04-24T18:55:05;12.40;96.90
9941;DHT22;5009;50.656;7.188;2023-04-24T18:57:31;12.40;97.20
9941;DHT22;5009;50.656;7.188;2023-04-24T18:59:57;12.40;97.30
9941;DHT22;5009;50.656;7.188;2023-04-24T19:02:23;12.40;97.40
9941;DHT22;5009;50.656;7.188;2023-04-24T19:04:48;12.30;97.50
9941;DHT22;5009;50.656;7.188;2023-04-24T19:07:14;12.30;97.70
9941;DHT22;5009;50.656;7.188;2023-04-24T19:09:40;12.30;97.80
9941;DHT22;5009;50.656;7.188;2023-04-24T19:12:06;12.20;98.20
9941;DHT22;5009;50.656;7.188;2023-04-24T19:14:31;12.20;98.50
9941;DHT22;5009;50.656;7.188;2023-04-24T19:16:57;12.10;98.70
9941;DHT22;5009;50.656;7.188;2023-04-24T19:19:23;12.10;98.90
9941;DHT22;5009;50.656;7.188;2023-04-24T19:21:50;12.10;98.70
9941;DHT22;5009;50.656;7.188;2023-04-24T19:24:17;12.00;98.80
9941;DHT22;5009;50.656;7.188;2023-04-24T19:26:43;12.00;99.00
9941;DHT22;5009;50.656;7.188;2023-04-24T19:29:10;12.00;99.00
9941;DHT22;5009;50.656;7.188;2023-04-24T19:31:35;12.00;98.70
9941;DHT22;5009;50.656;7.188;2023-04-24T19:34:01;11.90;98.70
9941;DHT22;5009;50.656;7.188;2023-04-24T19:36:26;11.80;98.60
9941;DHT22;5009;50.656;7.188;2023-04-24T19:38:52;11.90;98.90
9941;DHT22;5009;50.656;7.188;2023-04-24T19:41:18;11.90;99.00
9941;DHT22;5009;50.656;7.188;2023-04-24T19:43:43;11.80;99.00
9941;DHT22;5009;50.656;7.188;2023-04-24T19:46:11;11.90;99.10
9941;DHT22;5009;50.656;7.188;2023-04-24T19:48:37;11.80;99.40
9941;DHT22;5009;50.656;7.188;2023-04-24T19:51:03;11.80;99.30
9941;DHT22;5009;50.656;7.188;2023-04-24T19:53:29;11.80;99.10
9941;DHT22;5009;50.656;7.188;2023-04-24T19:55:54;11.80;98.90
9941;DHT22;5009;50.656;7.188;2023-04-24T19:58:20;11.80;98.70
9941;DHT22;5009;50.656;7.188;2023-04-24T20:00:46;11.80;98.80
9941;DHT22;5009;50.656;7.188;2023-04-24T20:03:11;11.80;99.00
9941;DHT22;5009;50.656;7.188;2023-04-24T20:05:37;11.80;98.80
9941;DHT22;5009;50.656;7.188;2023-04-24T20:08:02;11.70;98.80
9941;DHT22;5009;50.656;7.188;2023-04-24T20:10:28;11.70;98.80